Terminal Aerodrome Forecast
Issued by NWS Sterling, VA

Home | Current Version | Previous Version | Text Only | Print | Product List | Glossary On
Versions: 1 2 3 4 5 6 7 8 9 10 11 12 13 14 15 16
000
FTUS41 KLWX 020531
TAFMRB
TAF
KMRB 020531Z 0206/0306 33004KT 5SM BR FEW070 SCT250
     FM021300 VRB03KT P6SM BKN070 BKN250
     FM022100 30007KT P6SM BKN060 BKN080
     FM030300 27005KT P6SM FEW080 SCT250=

USA.gov is the U.S. government's official web portal to all federal, state and local government web resources and services.